createdAt,value
2022-11-26T00:04:59.659Z,60.30
2022-11-26T00:10:25.610Z,58.95
2022-11-26T00:15:48.097Z,55.20
2022-11-26T00:21:20.701Z,58.55
2022-11-26T00:26:42.533Z,58.47
2022-11-26T00:32:14.951Z,60.45
2022-11-26T00:37:48.456Z,59.35
2022-11-26T00:43:15.006Z,59.15
2022-11-26T00:48:36.787Z,61.10
2022-11-26T00:54:01.726Z,59.80
2022-11-26T00:59:23.586Z,60.33
2022-11-26T01:04:45.481Z,58.95
2022-11-26T01:10:21.058Z,54.65
2022-11-26T01:15:42.834Z,58.50
2022-11-26T01:21:04.683Z,56.85
2022-11-26T01:26:35.072Z,57.75
2022-11-26T01:31:56.981Z,55.20
2022-11-26T01:37:18.815Z,59.88
2022-11-26T01:42:43.854Z,56.78
2022-11-26T01:48:26.386Z,54.40
2022-11-26T01:53:52.563Z,52.83
2022-11-26T01:59:34.402Z,53.63
2022-11-26T02:04:59.334Z,53.70
2022-11-26T02:10:21.161Z,54.55
2022-11-26T02:16:07.115Z,48.17
2022-11-26T02:21:32.404Z,55.45
2022-11-26T02:27:05.271Z,57.50
2022-11-26T02:32:59.641Z,59.67
2022-11-26T02:38:24.289Z,56.83
2022-11-26T02:43:47.076Z,58.58
2022-11-26T02:49:12.329Z,56.13
2022-11-26T02:54:36.730Z,57.85
2022-11-26T02:59:58.785Z,54.17
2022-11-26T03:05:20.970Z,57.90
2022-11-26T03:10:42.855Z,52.95
2022-11-26T03:16:05.024Z,55.88
2022-11-26T03:21:27.072Z,54.55
2022-11-26T03:26:48.839Z,54.28
2022-11-26T03:32:10.593Z,56.53
2022-11-26T03:37:32.385Z,55.67
2022-11-26T03:42:54.144Z,54.22
2022-11-26T03:48:16.082Z,56.20
2022-11-26T03:53:38.281Z,53.92
2022-11-26T03:59:00.149Z,54.00
2022-11-26T04:04:21.986Z,63.35
2022-11-26T04:09:43.974Z,69.95
2022-11-26T04:15:06.199Z,74.32
2022-11-26T04:20:28.366Z,73.35
2022-11-26T04:25:50.187Z,66.55
2022-11-26T04:31:11.975Z,68.82
2022-11-26T04:36:33.775Z,61.50
2022-11-26T04:41:55.589Z,63.17
2022-11-26T04:47:17.526Z,58.55
2022-11-26T04:52:39.305Z,56.03
2022-11-26T04:58:01.102Z,55.35
2022-11-26T05:03:22.960Z,46.47
2022-11-26T05:08:44.750Z,44.05
2022-11-26T05:14:06.723Z,42.75
2022-11-26T05:19:28.691Z,46.83
2022-11-26T05:24:50.572Z,42.97
2022-11-26T05:30:12.879Z,39.25
2022-11-26T05:35:34.675Z,38.22
2022-11-26T05:40:56.586Z,37.42
2022-11-26T05:46:18.947Z,36.35
2022-11-26T05:51:40.771Z,36.92
2022-11-26T05:57:02.623Z,35.15
2022-11-26T06:02:24.528Z,35.83
2022-11-26T06:07:46.430Z,36.22
2022-11-26T06:13:08.286Z,34.65
2022-11-26T06:18:30.098Z,32.90
2022-11-26T06:23:58.920Z,32.22
2022-11-26T06:29:27.573Z,31.23
2022-11-26T06:34:53.760Z,28.85
2022-11-26T06:40:19.051Z,29.60
2022-11-26T06:45:40.865Z,28.20
2022-11-26T06:51:08.095Z,26.88
2022-11-26T06:56:29.991Z,23.90
2022-11-26T07:01:51.936Z,23.10
2022-11-26T07:07:14.047Z,26.38
2022-11-26T07:12:35.944Z,23.55
2022-11-26T07:17:58.929Z,22.70
2022-11-26T07:23:21.000Z,23.33
2022-11-26T07:28:42.927Z,22.70
2022-11-26T07:34:04.733Z,21.98
2022-11-26T07:39:26.498Z,24.80
2022-11-26T07:44:48.266Z,24.30
2022-11-26T07:50:10.182Z,24.20
2022-11-26T07:55:31.934Z,26.13
2022-11-26T08:00:54.917Z,24.45
2022-11-26T08:06:22.209Z,25.13
2022-11-26T08:11:44.179Z,25.55
2022-11-26T08:17:06.001Z,25.75
2022-11-26T08:22:29.652Z,29.65
2022-11-26T08:27:51.449Z,24.33
2022-11-26T08:33:14.073Z,25.88
2022-11-26T08:38:36.750Z,25.77
2022-11-26T08:44:07.504Z,27.48
2022-11-26T08:49:30.351Z,25.55
2022-11-26T08:54:52.194Z,27.75
2022-11-26T09:00:14.828Z,28.80
2022-11-26T09:05:36.627Z,25.48
2022-11-26T09:10:58.432Z,28.95
2022-11-26T09:16:22.017Z,24.27
2022-11-26T09:21:45.118Z,24.92
2022-11-26T09:27:08.302Z,24.60
2022-11-26T09:32:34.035Z,22.98
2022-11-26T09:37:56.268Z,22.13
2022-11-26T09:43:36.462Z,21.40
2022-11-26T09:49:04.115Z,21.92
2022-11-26T09:54:30.147Z,20.85
2022-11-26T09:59:53.932Z,20.67
2022-11-26T10:05:21.034Z,21.90
2022-11-26T10:10:54.489Z,21.48
2022-11-26T10:16:19.041Z,22.25
2022-11-26T10:21:59.643Z,22.30
2022-11-26T10:27:24.290Z,22.52
2022-11-26T10:32:47.882Z,22.27
2022-11-26T10:38:10.887Z,24.40
2022-11-26T10:43:32.697Z,23.65
2022-11-26T10:48:54.475Z,23.25
2022-11-26T10:54:35.172Z,22.55
2022-11-26T10:59:57.135Z,23.42
2022-11-26T11:05:20.266Z,23.00
2022-11-26T11:10:54.226Z,25.15
2022-11-26T11:16:28.636Z,24.45
2022-11-26T11:21:50.791Z,23.67
2022-11-26T11:27:28.132Z,23.85
2022-11-26T11:32:49.925Z,23.52
2022-11-26T11:38:23.904Z,25.02
2022-11-26T11:43:46.332Z,21.48
2022-11-26T11:49:25.610Z,23.50
2022-11-26T11:55:07.466Z,24.17
2022-11-26T12:00:55.270Z,28.35
2022-11-26T12:06:27.976Z,27.25
2022-11-26T12:12:00.752Z,28.90
2022-11-26T12:17:37.027Z,27.30
2022-11-26T12:28:31.676Z,24.92
2022-11-26T12:34:07.094Z,24.70
2022-11-26T12:39:53.394Z,24.98
2022-11-26T12:45:31.811Z,26.30
2022-11-26T12:51:12.060Z,26.27
2022-11-26T12:57:02.940Z,25.42
2022-11-26T13:02:32.413Z,26.92
2022-11-26T13:08:06.300Z,27.52
2022-11-26T13:14:05.834Z,26.80
2022-11-26T13:19:30.704Z,25.98
2022-11-26T13:25:29.586Z,24.70
2022-11-26T13:31:16.923Z,23.65
2022-11-26T13:36:50.396Z,23.50
2022-11-26T13:42:21.203Z,25.70
2022-11-26T13:47:59.739Z,25.27
2022-11-26T13:53:27.119Z,26.38
2022-11-26T13:59:01.970Z,27.35
2022-11-26T14:04:23.690Z,26.83
2022-11-26T14:09:47.738Z,26.08
2022-11-26T14:15:41.299Z,26.02
2022-11-26T14:21:03.089Z,25.90
2022-11-26T14:26:27.435Z,27.55
2022-11-26T14:31:54.672Z,26.42
2022-11-26T14:37:19.608Z,26.58
2022-11-26T14:42:42.730Z,27.00
2022-11-26T14:48:05.588Z,26.95
2022-11-26T14:53:33.931Z,28.08
2022-11-26T14:59:00.117Z,27.20
2022-11-26T15:04:28.135Z,24.65
2022-11-26T15:10:03.857Z,27.48
2022-11-26T15:15:25.710Z,28.17
2022-11-26T15:20:54.675Z,27.10
2022-11-26T15:26:18.391Z,25.48
2022-11-26T15:31:43.374Z,24.35
2022-11-26T15:37:05.209Z,26.55
2022-11-26T15:42:29.815Z,25.23
2022-11-26T15:47:54.478Z,26.77
2022-11-26T15:53:22.950Z,26.38
2022-11-26T15:58:49.208Z,27.10
2022-11-26T16:04:38.220Z,26.83
2022-11-26T16:10:17.005Z,27.67
2022-11-26T16:16:04.001Z,28.17
2022-11-26T16:21:27.939Z,25.92
2022-11-26T16:26:57.648Z,27.83
2022-11-26T16:32:19.935Z,25.20
2022-11-26T16:37:45.123Z,21.98
2022-11-26T16:43:07.052Z,22.60
2022-11-26T16:48:29.262Z,22.15
2022-11-26T16:53:51.159Z,23.05
2022-11-26T16:59:22.908Z,22.88
2022-11-26T17:04:45.494Z,22.67
2022-11-26T17:10:14.388Z,23.55
2022-11-26T17:15:36.209Z,23.63
2022-11-26T17:20:57.993Z,23.20
2022-11-26T17:26:22.296Z,22.08
2022-11-26T17:31:44.091Z,21.63
2022-11-26T17:37:06.312Z,21.17
2022-11-26T17:42:32.183Z,23.33
2022-11-26T17:47:57.096Z,21.17
2022-11-26T17:53:18.954Z,25.50
2022-11-26T17:58:40.851Z,21.60
2022-11-26T18:04:02.787Z,21.67
2022-11-26T18:09:24.646Z,22.83
2022-11-26T18:14:46.544Z,21.33
2022-11-26T18:20:08.605Z,20.90
2022-11-26T18:25:33.312Z,20.58
2022-11-26T18:30:58.274Z,19.48
2022-11-26T18:36:20.745Z,19.67
2022-11-26T18:41:43.126Z,19.98
2022-11-26T18:47:09.209Z,22.42
2022-11-26T18:57:53.194Z,21.77
2022-11-26T19:03:16.125Z,21.73
2022-11-26T19:08:38.025Z,20.33
2022-11-26T19:14:00.512Z,20.48
2022-11-26T19:19:22.779Z,20.10
2022-11-26T19:24:44.674Z,20.05
2022-11-26T19:30:08.685Z,23.25
2022-11-26T19:35:31.695Z,20.73
2022-11-26T19:40:58.737Z,20.55
2022-11-26T19:46:22.705Z,21.50
2022-11-26T19:51:45.486Z,21.30
2022-11-26T19:57:07.316Z,21.10
2022-11-26T20:02:29.216Z,22.50
2022-11-26T20:07:51.117Z,23.13
2022-11-26T20:13:13.492Z,22.05
2022-11-26T20:18:37.380Z,23.30
2022-11-26T20:24:02.432Z,23.50
2022-11-26T20:29:24.259Z,29.95
2022-11-26T20:34:46.054Z,23.60
2022-11-26T20:40:08.414Z,23.13
2022-11-26T20:45:30.327Z,23.55
2022-11-26T20:50:52.223Z,25.35
2022-11-26T20:56:14.529Z,26.70
2022-11-26T21:01:36.556Z,26.55
2022-11-26T21:06:58.440Z,26.25
2022-11-26T21:12:20.322Z,27.20
2022-11-26T21:17:42.188Z,26.88
2022-11-26T21:23:04.043Z,28.27
2022-11-26T21:28:25.856Z,28.30
2022-11-26T21:33:53.959Z,27.17
2022-11-26T21:39:16.537Z,28.65
2022-11-26T21:44:38.395Z,28.17
2022-11-26T21:50:00.316Z,25.55
2022-11-26T21:55:22.110Z,26.98
2022-11-26T22:00:43.923Z,26.50
2022-11-26T22:06:05.938Z,26.83
2022-11-26T22:11:30.402Z,27.25
2022-11-26T22:16:52.740Z,28.33
2022-11-26T22:22:14.564Z,29.70
2022-11-26T22:27:36.366Z,28.77
2022-11-26T22:32:58.142Z,27.75
2022-11-26T22:38:19.985Z,28.70
2022-11-26T22:43:42.498Z,31.77
2022-11-26T22:49:06.019Z,30.13
2022-11-26T22:54:27.856Z,30.35
2022-11-26T22:59:49.812Z,29.00
2022-11-26T23:05:11.588Z,27.88
2022-11-26T23:10:33.528Z,28.08
2022-11-26T23:15:55.393Z,27.98
2022-11-26T23:21:23.185Z,27.17
2022-11-26T23:26:45.231Z,28.15
2022-11-26T23:32:07.062Z,29.30
2022-11-26T23:37:28.925Z,26.40
2022-11-26T23:42:50.804Z,28.10
2022-11-26T23:48:12.716Z,27.15
2022-11-26T23:53:36.217Z,27.17
2022-11-26T23:59:00.611Z,27.10
